sensor_id;sensor_type;location;lat;lon;timestamp;P1;durP1;ratioP1;P2;durP2;ratioP2
22201;SDS011;11266;51.522;6.302;2023-09-30T00:00:17;9.75;;;4.15;;
22201;SDS011;11266;51.522;6.302;2023-09-30T00:01:03;5.78;;;2.92;;
22201;SDS011;11266;51.522;6.302;2023-09-30T00:01:54;9.77;;;3.67;;
22201;SDS011;11266;51.522;6.302;2023-09-30T00:02:40;9.70;;;3.85;;
22201;SDS011;11266;51.522;6.302;2023-09-30T00:03:26;9.98;;;4.25;;
22201;SDS011;11266;51.522;6.302;2023-09-30T00:04:11;8.73;;;3.90;;
22201;SDS011;11266;51.522;6.302;2023-09-30T00:04:57;7.93;;;3.58;;
22201;SDS011;11266;51.522;6.302;2023-09-30T00:05:43;10.10;;;3.75;;
22201;SDS011;11266;51.522;6.302;2023-09-30T00:06:28;8.95;;;3.60;;
22201;SDS011;11266;51.522;6.302;2023-09-30T00:07:14;12.15;;;4.05;;
22201;SDS011;11266;51.522;6.302;2023-09-30T00:07:59;10.13;;;3.92;;
22201;SDS011;11266;51.522;6.302;2023-09-30T00:08:45;8.60;;;3.53;;
22201;SDS011;11266;51.522;6.302;2023-09-30T00:09:30;7.03;;;3.65;;
22201;SDS011;11266;51.522;6.302;2023-09-30T00:10:16;7.18;;;3.67;;
22201;SDS011;11266;51.522;6.302;2023-09-30T00:11:02;9.68;;;4.28;;
22201;SDS011;11266;51.522;6.302;2023-09-30T00:11:50;9.27;;;3.85;;
22201;SDS011;11266;51.522;6.302;2023-09-30T00:12:36;8.23;;;3.53;;
22201;SDS011;11266;51.522;6.302;2023-09-30T00:13:21;7.05;;;3.67;;
22201;SDS011;11266;51.522;6.302;2023-09-30T00:14:07;8.82;;;4.47;;
22201;SDS011;11266;51.522;6.302;2023-09-30T00:14:53;9.07;;;4.03;;
22201;SDS011;11266;51.522;6.302;2023-09-30T00:15:39;8.15;;;3.35;;
22201;SDS011;11266;51.522;6.302;2023-09-30T00:16:26;8.57;;;3.40;;
22201;SDS011;11266;51.522;6.302;2023-09-30T00:17:11;7.78;;;3.78;;
22201;SDS011;11266;51.522;6.302;2023-09-30T00:17:57;8.32;;;3.58;;
22201;SDS011;11266;51.522;6.302;2023-09-30T00:18:43;8.38;;;3.53;;
22201;SDS011;11266;51.522;6.302;2023-09-30T00:19:29;7.82;;;3.70;;
22201;SDS011;11266;51.522;6.302;2023-09-30T00:20:17;8.23;;;3.75;;
22201;SDS011;11266;51.522;6.302;2023-09-30T00:21:02;6.53;;;3.67;;
22201;SDS011;11266;51.522;6.302;2023-09-30T00:21:48;7.90;;;3.80;;
22201;SDS011;11266;51.522;6.302;2023-09-30T00:22:34;9.57;;;4.03;;
22201;SDS011;11266;51.522;6.302;2023-09-30T00:23:19;8.77;;;3.70;;
22201;SDS011;11266;51.522;6.302;2023-09-30T00:24:06;11.05;;;3.65;;
22201;SDS011;11266;51.522;6.302;2023-09-30T00:24:52;6.75;;;3.38;;
22201;SDS011;11266;51.522;6.302;2023-09-30T00:25:37;7.25;;;3.15;;
22201;SDS011;11266;51.522;6.302;2023-09-30T00:26:24;6.60;;;3.35;;
22201;SDS011;11266;51.522;6.302;2023-09-30T00:27:09;7.28;;;3.40;;
22201;SDS011;11266;51.522;6.302;2023-09-30T00:27:55;7.45;;;3.60;;
22201;SDS011;11266;51.522;6.302;2023-09-30T00:28:41;8.65;;;3.13;;
22201;SDS011;11266;51.522;6.302;2023-09-30T00:29:26;9.75;;;3.95;;
22201;SDS011;11266;51.522;6.302;2023-09-30T00:30:12;10.52;;;3.55;;
22201;SDS011;11266;51.522;6.302;2023-09-30T00:30:58;8.15;;;3.58;;
22201;SDS011;11266;51.522;6.302;2023-09-30T00:31:43;6.55;;;2.97;;
22201;SDS011;11266;51.522;6.302;2023-09-30T00:32:29;7.68;;;3.80;;
22201;SDS011;11266;51.522;6.302;2023-09-30T00:33:14;8.10;;;3.60;;
22201;SDS011;11266;51.522;6.302;2023-09-30T00:34:00;6.35;;;3.30;;
22201;SDS011;11266;51.522;6.302;2023-09-30T00:34:46;7.43;;;3.70;;
22201;SDS011;11266;51.522;6.302;2023-09-30T00:35:32;7.78;;;3.45;;
22201;SDS011;11266;51.522;6.302;2023-09-30T00:36:17;9.30;;;3.45;;
22201;SDS011;11266;51.522;6.302;2023-09-30T00:37:03;11.43;;;3.72;;
22201;SDS011;11266;51.522;6.302;2023-09-30T00:37:49;7.20;;;3.25;;
22201;SDS011;11266;51.522;6.302;2023-09-30T00:38:35;9.43;;;3.55;;
22201;SDS011;11266;51.522;6.302;2023-09-30T00:39:21;6.47;;;3.25;;
22201;SDS011;11266;51.522;6.302;2023-09-30T00:40:07;7.65;;;3.40;;
22201;SDS011;11266;51.522;6.302;2023-09-30T00:40:58;10.82;;;3.95;;
22201;SDS011;11266;51.522;6.302;2023-09-30T00:41:44;8.77;;;3.53;;
22201;SDS011;11266;51.522;6.302;2023-09-30T00:42:29;7.45;;;3.92;;
22201;SDS011;11266;51.522;6.302;2023-09-30T00:43:18;10.13;;;3.40;;
22201;SDS011;11266;51.522;6.302;2023-09-30T00:44:05;9.65;;;4.10;;
22201;SDS011;11266;51.522;6.302;2023-09-30T00:44:51;9.05;;;3.67;;
22201;SDS011;11266;51.522;6.302;2023-09-30T00:45:36;7.15;;;3.28;;
22201;SDS011;11266;51.522;6.302;2023-09-30T00:46:27;6.88;;;3.60;;
22201;SDS011;11266;51.522;6.302;2023-09-30T00:47:15;6.53;;;3.20;;
22201;SDS011;11266;51.522;6.302;2023-09-30T00:48:01;7.05;;;3.45;;
22201;SDS011;11266;51.522;6.302;2023-09-30T00:48:47;7.68;;;3.42;;
22201;SDS011;11266;51.522;6.302;2023-09-30T00:49:33;9.98;;;3.50;;
22201;SDS011;11266;51.522;6.302;2023-09-30T00:50:19;7.15;;;2.85;;
22201;SDS011;11266;51.522;6.302;2023-09-30T00:51:05;7.32;;;3.60;;
22201;SDS011;11266;51.522;6.302;2023-09-30T00:51:51;8.43;;;3.65;;
22201;SDS011;11266;51.522;6.302;2023-09-30T00:52:39;9.13;;;3.63;;
22201;SDS011;11266;51.522;6.302;2023-09-30T00:53:25;6.05;;;3.25;;
22201;SDS011;11266;51.522;6.302;2023-09-30T00:54:11;7.63;;;3.63;;
22201;SDS011;11266;51.522;6.302;2023-09-30T00:54:58;7.43;;;3.30;;
22201;SDS011;11266;51.522;6.302;2023-09-30T00:55:44;6.68;;;3.53;;
22201;SDS011;11266;51.522;6.302;2023-09-30T00:56:29;8.13;;;3.40;;
22201;SDS011;11266;51.522;6.302;2023-09-30T00:57:16;8.18;;;3.30;;
22201;SDS011;11266;51.522;6.302;2023-09-30T00:58:03;7.05;;;3.33;;
22201;SDS011;11266;51.522;6.302;2023-09-30T00:58:50;8.18;;;3.55;;
22201;SDS011;11266;51.522;6.302;2023-09-30T00:59:36;7.65;;;3.40;;
22201;SDS011;11266;51.522;6.302;2023-09-30T01:00:22;9.63;;;3.78;;
22201;SDS011;11266;51.522;6.302;2023-09-30T01:01:10;7.22;;;3.30;;
22201;SDS011;11266;51.522;6.302;2023-09-30T01:01:56;6.10;;;2.95;;
22201;SDS011;11266;51.522;6.302;2023-09-30T01:02:43;8.55;;;3.80;;
22201;SDS011;11266;51.522;6.302;2023-09-30T01:03:29;9.20;;;3.83;;
22201;SDS011;11266;51.522;6.302;2023-09-30T01:04:15;8.60;;;3.53;;
22201;SDS011;11266;51.522;6.302;2023-09-30T01:05:01;8.70;;;3.47;;
22201;SDS011;11266;51.522;6.302;2023-09-30T01:05:46;6.20;;;3.33;;
22201;SDS011;11266;51.522;6.302;2023-09-30T01:06:33;5.10;;;2.75;;
22201;SDS011;11266;51.522;6.302;2023-09-30T01:07:18;8.23;;;3.58;;
22201;SDS011;11266;51.522;6.302;2023-09-30T01:08:06;5.47;;;3.08;;
22201;SDS011;11266;51.522;6.302;2023-09-30T01:08:53;8.93;;;2.97;;
22201;SDS011;11266;51.522;6.302;2023-09-30T01:09:38;7.40;;;3.40;;
22201;SDS011;11266;51.522;6.302;2023-09-30T01:10:24;7.50;;;3.67;;
22201;SDS011;11266;51.522;6.302;2023-09-30T01:11:10;6.70;;;3.13;;
22201;SDS011;11266;51.522;6.302;2023-09-30T01:11:56;8.48;;;3.67;;
22201;SDS011;11266;51.522;6.302;2023-09-30T01:12:42;6.70;;;3.38;;
22201;SDS011;11266;51.522;6.302;2023-09-30T01:13:36;8.15;;;3.80;;
22201;SDS011;11266;51.522;6.302;2023-09-30T01:14:29;6.45;;;3.70;;
22201;SDS011;11266;51.522;6.302;2023-09-30T01:15:16;7.85;;;3.78;;
22201;SDS011;11266;51.522;6.302;2023-09-30T01:16:51;9.98;;;3.55;;
22201;SDS011;11266;51.522;6.302;2023-09-30T01:17:36;7.32;;;3.40;;
22201;SDS011;11266;51.522;6.302;2023-09-30T01:18:22;7.55;;;3.58;;
22201;SDS011;11266;51.522;6.302;2023-09-30T01:19:07;7.05;;;3.40;;
22201;SDS011;11266;51.522;6.302;2023-09-30T01:19:57;6.50;;;3.58;;
22201;SDS011;11266;51.522;6.302;2023-09-30T01:20:48;6.25;;;3.20;;
22201;SDS011;11266;51.522;6.302;2023-09-30T01:21:37;6.35;;;3.63;;
22201;SDS011;11266;51.522;6.302;2023-09-30T01:22:22;8.10;;;3.42;;
22201;SDS011;11266;51.522;6.302;2023-09-30T01:23:08;9.35;;;3.67;;
22201;SDS011;11266;51.522;6.302;2023-09-30T01:23:57;6.97;;;3.38;;
22201;SDS011;11266;51.522;6.302;2023-09-30T01:24:43;7.53;;;3.40;;
22201;SDS011;11266;51.522;6.302;2023-09-30T01:25:32;8.88;;;3.65;;
22201;SDS011;11266;51.522;6.302;2023-09-30T01:26:19;11.88;;;4.30;;
22201;SDS011;11266;51.522;6.302;2023-09-30T01:27:05;7.80;;;3.40;;
22201;SDS011;11266;51.522;6.302;2023-09-30T01:27:51;7.45;;;3.17;;
22201;SDS011;11266;51.522;6.302;2023-09-30T01:28:37;5.78;;;3.00;;
22201;SDS011;11266;51.522;6.302;2023-09-30T01:29:23;8.02;;;3.13;;
22201;SDS011;11266;51.522;6.302;2023-09-30T01:30:10;8.23;;;3.80;;
22201;SDS011;11266;51.522;6.302;2023-09-30T01:30:58;7.35;;;3.60;;
22201;SDS011;11266;51.522;6.302;2023-09-30T01:31:44;6.13;;;3.00;;
22201;SDS011;11266;51.522;6.302;2023-09-30T01:32:32;6.32;;;3.75;;
22201;SDS011;11266;51.522;6.302;2023-09-30T01:33:18;7.40;;;3.10;;
22201;SDS011;11266;51.522;6.302;2023-09-30T01:34:04;7.25;;;3.35;;
22201;SDS011;11266;51.522;6.302;2023-09-30T01:34:49;7.45;;;3.40;;
22201;SDS011;11266;51.522;6.302;2023-09-30T01:35:35;9.25;;;3.38;;
22201;SDS011;11266;51.522;6.302;2023-09-30T01:36:20;9.07;;;3.47;;
22201;SDS011;11266;51.522;6.302;2023-09-30T01:37:06;8.98;;;3.65;;
22201;SDS011;11266;51.522;6.302;2023-09-30T01:37:52;8.45;;;3.55;;
22201;SDS011;11266;51.522;6.302;2023-09-30T01:38:37;7.97;;;3.75;;
22201;SDS011;11266;51.522;6.302;2023-09-30T01:39:23;8.27;;;3.30;;
22201;SDS011;11266;51.522;6.302;2023-09-30T01:40:08;7.72;;;3.55;;
22201;SDS011;11266;51.522;6.302;2023-09-30T01:40:56;10.63;;;3.78;;
22201;SDS011;11266;51.522;6.302;2023-09-30T01:41:42;7.97;;;3.50;;
22201;SDS011;11266;51.522;6.302;2023-09-30T01:42:28;7.60;;;3.40;;
22201;SDS011;11266;51.522;6.302;2023-09-30T01:43:14;6.47;;;3.17;;
22201;SDS011;11266;51.522;6.302;2023-09-30T01:44:00;8.68;;;3.92;;
22201;SDS011;11266;51.522;6.302;2023-09-30T01:44:46;7.25;;;3.60;;
22201;SDS011;11266;51.522;6.302;2023-09-30T01:45:31;6.75;;;3.13;;
22201;SDS011;11266;51.522;6.302;2023-09-30T01:46:17;5.70;;;2.95;;
22201;SDS011;11266;51.522;6.302;2023-09-30T01:47:02;7.10;;;3.10;;
22201;SDS011;11266;51.522;6.302;2023-09-30T01:47:48;9.52;;;4.00;;
22201;SDS011;11266;51.522;6.302;2023-09-30T01:48:33;8.85;;;3.33;;
22201;SDS011;11266;51.522;6.302;2023-09-30T01:49:19;8.45;;;3.83;;
22201;SDS011;11266;51.522;6.302;2023-09-30T01:50:09;9.98;;;3.20;;
22201;SDS011;11266;51.522;6.302;2023-09-30T01:50:55;7.47;;;3.60;;
22201;SDS011;11266;51.522;6.302;2023-09-30T01:51:40;8.38;;;3.47;;
22201;SDS011;11266;51.522;6.302;2023-09-30T01:52:26;7.05;;;3.40;;
22201;SDS011;11266;51.522;6.302;2023-09-30T01:53:12;7.22;;;3.47;;
22201;SDS011;11266;51.522;6.302;2023-09-30T01:53:58;8.05;;;3.47;;
22201;SDS011;11266;51.522;6.302;2023-09-30T01:54:43;9.32;;;3.78;;
22201;SDS011;11266;51.522;6.302;2023-09-30T01:55:29;10.15;;;3.70;;
22201;SDS011;11266;51.522;6.302;2023-09-30T01:56:15;7.60;;;3.20;;
22201;SDS011;11266;51.522;6.302;2023-09-30T01:57:01;8.77;;;3.78;;
22201;SDS011;11266;51.522;6.302;2023-09-30T01:57:48;7.07;;;3.42;;
22201;SDS011;11266;51.522;6.302;2023-09-30T01:58:33;9.10;;;3.63;;
22201;SDS011;11266;51.522;6.302;2023-09-30T01:59:19;7.80;;;3.65;;
22201;SDS011;11266;51.522;6.302;2023-09-30T02:00:05;8.90;;;3.38;;
22201;SDS011;11266;51.522;6.302;2023-09-30T02:00:54;9.13;;;3.45;;
22201;SDS011;11266;51.522;6.302;2023-09-30T02:01:47;8.43;;;3.45;;
22201;SDS011;11266;51.522;6.302;2023-09-30T02:02:34;8.82;;;3.50;;
22201;SDS011;11266;51.522;6.302;2023-09-30T02:03:20;7.90;;;3.72;;
22201;SDS011;11266;51.522;6.302;2023-09-30T02:04:06;11.02;;;3.75;;
22201;SDS011;11266;51.522;6.302;2023-09-30T02:04:51;7.82;;;4.18;;
22201;SDS011;11266;51.522;6.302;2023-09-30T02:05:38;8.27;;;3.47;;
22201;SDS011;11266;51.522;6.302;2023-09-30T02:06:24;11.13;;;4.20;;
22201;SDS011;11266;51.522;6.302;2023-09-30T02:07:10;8.27;;;3.63;;
22201;SDS011;11266;51.522;6.302;2023-09-30T02:07:55;8.65;;;3.78;;
22201;SDS011;11266;51.522;6.302;2023-09-30T02:08:41;8.48;;;3.90;;
22201;SDS011;11266;51.522;6.302;2023-09-30T02:09:29;7.30;;;3.67;;
22201;SDS011;11266;51.522;6.302;2023-09-30T02:10:15;8.82;;;3.58;;
22201;SDS011;11266;51.522;6.302;2023-09-30T02:11:03;8.85;;;4.20;;
22201;SDS011;11266;51.522;6.302;2023-09-30T02:11:50;8.70;;;3.28;;
22201;SDS011;11266;51.522;6.302;2023-09-30T02:12:35;13.95;;;5.10;;
22201;SDS011;11266;51.522;6.302;2023-09-30T02:13:22;6.50;;;3.50;;
22201;SDS011;11266;51.522;6.302;2023-09-30T02:14:07;7.40;;;3.25;;
22201;SDS011;11266;51.522;6.302;2023-09-30T02:14:58;8.50;;;3.78;;
22201;SDS011;11266;51.522;6.302;2023-09-30T02:15:43;6.53;;;3.05;;
22201;SDS011;11266;51.522;6.302;2023-09-30T02:16:29;7.80;;;3.33;;
22201;SDS011;11266;51.522;6.302;2023-09-30T02:17:14;9.02;;;3.75;;
22201;SDS011;11266;51.522;6.302;2023-09-30T02:18:00;8.10;;;3.30;;
22201;SDS011;11266;51.522;6.302;2023-09-30T02:18:46;10.73;;;4.00;;
22201;SDS011;11266;51.522;6.302;2023-09-30T02:19:32;8.55;;;3.78;;
22201;SDS011;11266;51.522;6.302;2023-09-30T02:20:18;7.43;;;3.58;;
22201;SDS011;11266;51.522;6.302;2023-09-30T02:21:07;7.50;;;3.60;;
22201;SDS011;11266;51.522;6.302;2023-09-30T02:21:54;9.00;;;3.50;;
22201;SDS011;11266;51.522;6.302;2023-09-30T02:22:39;9.15;;;3.35;;
22201;SDS011;11266;51.522;6.302;2023-09-30T02:23:25;8.02;;;3.13;;
22201;SDS011;11266;51.522;6.302;2023-09-30T02:24:10;7.78;;;2.97;;
22201;SDS011;11266;51.522;6.302;2023-09-30T02:24:56;7.70;;;3.58;;
22201;SDS011;11266;51.522;6.302;2023-09-30T02:25:41;7.18;;;3.10;;
22201;SDS011;11266;51.522;6.302;2023-09-30T02:26:28;9.90;;;3.72;;
22201;SDS011;11266;51.522;6.302;2023-09-30T02:27:14;10.90;;;3.85;;
22201;SDS011;11266;51.522;6.302;2023-09-30T02:27:59;8.13;;;3.78;;
22201;SDS011;11266;51.522;6.302;2023-09-30T02:28:45;10.40;;;3.70;;
22201;SDS011;11266;51.522;6.302;2023-09-30T02:29:31;6.50;;;3.50;;
22201;SDS011;11266;51.522;6.302;2023-09-30T02:30:17;8.65;;;3.63;;
22201;SDS011;11266;51.522;6.302;2023-09-30T02:31:03;8.10;;;3.53;;
22201;SDS011;11266;51.522;6.302;2023-09-30T02:31:48;7.60;;;3.40;;
22201;SDS011;11266;51.522;6.302;2023-09-30T02:32:34;5.85;;;3.20;;
22201;SDS011;11266;51.522;6.302;2023-09-30T02:33:19;7.05;;;3.20;;
22201;SDS011;11266;51.522;6.302;2023-09-30T02:34:05;11.98;;;3.88;;
22201;SDS011;11266;51.522;6.302;2023-09-30T02:34:51;8.25;;;3.38;;
22201;SDS011;11266;51.522;6.302;2023-09-30T02:35:36;6.95;;;3.35;;
22201;SDS011;11266;51.522;6.302;2023-09-30T02:36:23;11.73;;;3.25;;
22201;SDS011;11266;51.522;6.302;2023-09-30T02:37:09;7.00;;;3.35;;
22201;SDS011;11266;51.522;6.302;2023-09-30T02:37:55;8.10;;;3.45;;
22201;SDS011;11266;51.522;6.302;2023-09-30T02:38:41;9.18;;;3.53;;
22201;SDS011;11266;51.522;6.302;2023-09-30T02:39:27;7.22;;;3.30;;
22201;SDS011;11266;51.522;6.302;2023-09-30T02:40:12;8.85;;;3.15;;
22201;SDS011;11266;51.522;6.302;2023-09-30T02:40:59;8.88;;;4.03;;
22201;SDS011;11266;51.522;6.302;2023-09-30T02:41:47;9.05;;;3.53;;
22201;SDS011;11266;51.522;6.302;2023-09-30T02:42:36;7.50;;;3.47;;
22201;SDS011;11266;51.522;6.302;2023-09-30T02:43:22;9.40;;;3.92;;
22201;SDS011;11266;51.522;6.302;2023-09-30T02:44:08;8.00;;;4.00;;
22201;SDS011;11266;51.522;6.302;2023-09-30T02:44:53;7.15;;;3.65;;
22201;SDS011;11266;51.522;6.302;2023-09-30T02:45:39;6.10;;;3.03;;
22201;SDS011;11266;51.522;6.302;2023-09-30T02:46:25;10.40;;;4.07;;
22201;SDS011;11266;51.522;6.302;2023-09-30T02:47:13;8.10;;;4.25;;
22201;SDS011;11266;51.522;6.302;2023-09-30T02:47:58;10.98;;;3.28;;
22201;SDS011;11266;51.522;6.302;2023-09-30T02:48:44;5.70;;;3.15;;
22201;SDS011;11266;51.522;6.302;2023-09-30T02:49:32;8.60;;;3.85;;
22201;SDS011;11266;51.522;6.302;2023-09-30T02:50:18;9.15;;;3.47;;
22201;SDS011;11266;51.522;6.302;2023-09-30T02:51:04;7.00;;;3.55;;
22201;SDS011;11266;51.522;6.302;2023-09-30T02:51:54;9.98;;;3.88;;
22201;SDS011;11266;51.522;6.302;2023-09-30T02:52:39;8.05;;;3.40;;
22201;SDS011;11266;51.522;6.302;2023-09-30T02:53:28;10.40;;;4.15;;
22201;SDS011;11266;51.522;6.302;2023-09-30T02:54:14;8.38;;;3.70;;
22201;SDS011;11266;51.522;6.302;2023-09-30T02:55:01;8.07;;;3.78;;
22201;SDS011;11266;51.522;6.302;2023-09-30T02:55:47;5.63;;;3.33;;
22201;SDS011;11266;51.522;6.302;2023-09-30T02:56:34;9.63;;;3.78;;
22201;SDS011;11266;51.522;6.302;2023-09-30T02:57:21;7.75;;;3.67;;
22201;SDS011;11266;51.522;6.302;2023-09-30T02:58:07;9.00;;;3.75;;
22201;SDS011;11266;51.522;6.302;2023-09-30T02:58:53;6.78;;;3.10;;
22201;SDS011;11266;51.522;6.302;2023-09-30T02:59:39;7.35;;;3.30;;
22201;SDS011;11266;51.522;6.302;2023-09-30T03:00:25;7.88;;;3.45;;
22201;SDS011;11266;51.522;6.302;2023-09-30T03:01:17;6.78;;;3.55;;
22201;SDS011;11266;51.522;6.302;2023-09-30T03:02:03;7.28;;;3.42;;
22201;SDS011;11266;51.522;6.302;2023-09-30T03:02:49;9.70;;;3.38;;
22201;SDS011;11266;51.522;6.302;2023-09-30T03:03:36;7.60;;;3.85;;
22201;SDS011;11266;51.522;6.302;2023-09-30T03:04:21;10.40;;;4.00;;
22201;SDS011;11266;51.522;6.302;2023-09-30T03:05:11;11.45;;;4.10;;
22201;SDS011;11266;51.522;6.302;2023-09-30T03:05:56;9.02;;;3.80;;
22201;SDS011;11266;51.522;6.302;2023-09-30T03:06:43;12.30;;;4.40;;
22201;SDS011;11266;51.522;6.302;2023-09-30T03:07:46;7.70;;;3.22;;
22201;SDS011;11266;51.522;6.302;2023-09-30T03:08:32;5.75;;;3.33;;
22201;SDS011;11266;51.522;6.302;2023-09-30T03:09:18;8.35;;;3.78;;
22201;SDS011;11266;51.522;6.302;2023-09-30T03:10:05;7.70;;;3.30;;
22201;SDS011;11266;51.522;6.302;2023-09-30T03:10:53;10.77;;;3.38;;
22201;SDS011;11266;51.522;6.302;2023-09-30T03:11:39;8.68;;;3.90;;
22201;SDS011;11266;51.522;6.302;2023-09-30T03:12:27;12.90;;;4.38;;
22201;SDS011;11266;51.522;6.302;2023-09-30T03:13:13;6.35;;;3.45;;
22201;SDS011;11266;51.522;6.302;2023-09-30T03:13:59;8.13;;;3.85;;
22201;SDS011;11266;51.522;6.302;2023-09-30T03:14:44;10.85;;;4.10;;
22201;SDS011;11266;51.522;6.302;2023-09-30T03:15:30;6.55;;;3.75;;
22201;SDS011;11266;51.522;6.302;2023-09-30T03:16:16;8.32;;;3.65;;
22201;SDS011;11266;51.522;6.302;2023-09-30T03:17:01;6.78;;;3.65;;
22201;SDS011;11266;51.522;6.302;2023-09-30T03:17:48;7.75;;;3.78;;
22201;SDS011;11266;51.522;6.302;2023-09-30T03:18:33;9.25;;;3.40;;
22201;SDS011;11266;51.522;6.302;2023-09-30T03:19:19;8.35;;;3.78;;
22201;SDS011;11266;51.522;6.302;2023-09-30T03:20:05;9.75;;;4.53;;
22201;SDS011;11266;51.522;6.302;2023-09-30T03:20:58;19.42;;;4.03;;
22201;SDS011;11266;51.522;6.302;2023-09-30T03:21:45;8.25;;;4.03;;
22201;SDS011;11266;51.522;6.302;2023-09-30T03:22:31;8.10;;;3.78;;
22201;SDS011;11266;51.522;6.302;2023-09-30T03:23:16;5.90;;;3.10;;
22201;SDS011;11266;51.522;6.302;2023-09-30T03:24:03;7.43;;;3.63;;
22201;SDS011;11266;51.522;6.302;2023-09-30T03:24:49;8.70;;;3.60;;
22201;SDS011;11266;51.522;6.302;2023-09-30T03:25:35;12.45;;;4.63;;
22201;SDS011;11266;51.522;6.302;2023-09-30T03:26:21;6.97;;;3.80;;
22201;SDS011;11266;51.522;6.302;2023-09-30T03:27:07;7.75;;;3.63;;
22201;SDS011;11266;51.522;6.302;2023-09-30T03:27:52;11.80;;;4.03;;
22201;SDS011;11266;51.522;6.302;2023-09-30T03:28:38;8.82;;;4.07;;
22201;SDS011;11266;51.522;6.302;2023-09-30T03:29:24;7.80;;;3.78;;
22201;SDS011;11266;51.522;6.302;2023-09-30T03:30:09;7.78;;;3.67;;
22201;SDS011;11266;51.522;6.302;2023-09-30T03:30:56;9.18;;;3.45;;
22201;SDS011;11266;51.522;6.302;2023-09-30T03:31:42;6.45;;;3.22;;
22201;SDS011;11266;51.522;6.302;2023-09-30T03:32:28;6.25;;;3.25;;
22201;SDS011;11266;51.522;6.302;2023-09-30T03:33:14;7.40;;;3.95;;
22201;SDS011;11266;51.522;6.302;2023-09-30T03:34:00;8.32;;;4.00;;
22201;SDS011;11266;51.522;6.302;2023-09-30T03:34:47;5.05;;;3.33;;
22201;SDS011;11266;51.522;6.302;2023-09-30T03:35:34;9.65;;;3.50;;
22201;SDS011;11266;51.522;6.302;2023-09-30T03:36:21;8.52;;;4.13;;
22201;SDS011;11266;51.522;6.302;2023-09-30T03:37:10;11.55;;;4.00;;
22201;SDS011;11266;51.522;6.302;2023-09-30T03:37:56;11.57;;;4.65;;
22201;SDS011;11266;51.522;6.302;2023-09-30T03:38:43;7.15;;;3.63;;
22201;SDS011;11266;51.522;6.302;2023-09-30T03:39:29;6.85;;;4.13;;
22201;SDS011;11266;51.522;6.302;2023-09-30T03:40:17;6.80;;;3.60;;
22201;SDS011;11266;51.522;6.302;2023-09-30T03:41:12;8.82;;;3.88;;
22201;SDS011;11266;51.522;6.302;2023-09-30T03:41:58;7.53;;;3.85;;
22201;SDS011;11266;51.522;6.302;2023-09-30T03:42:45;7.93;;;3.83;;
22201;SDS011;11266;51.522;6.302;2023-09-30T03:43:34;10.75;;;4.40;;
22201;SDS011;11266;51.522;6.302;2023-09-30T03:44:25;8.00;;;3.95;;
22201;SDS011;11266;51.522;6.302;2023-09-30T03:45:11;7.75;;;3.42;;
22201;SDS011;11266;51.522;6.302;2023-09-30T03:45:58;7.20;;;4.00;;
22201;SDS011;11266;51.522;6.302;2023-09-30T03:46:45;7.68;;;4.15;;
22201;SDS011;11266;51.522;6.302;2023-09-30T03:47:31;7.20;;;3.83;;
22201;SDS011;11266;51.522;6.302;2023-09-30T03:48:17;7.15;;;3.90;;
22201;SDS011;11266;51.522;6.302;2023-09-30T03:49:03;9.43;;;4.50;;
22201;SDS011;11266;51.522;6.302;2023-09-30T03:49:49;9.23;;;4.10;;
22201;SDS011;11266;51.522;6.302;2023-09-30T03:50:34;9.35;;;4.53;;
22201;SDS011;11266;51.522;6.302;2023-09-30T03:51:20;6.47;;;3.70;;
22201;SDS011;11266;51.522;6.302;2023-09-30T03:52:10;8.38;;;3.60;;
22201;SDS011;11266;51.522;6.302;2023-09-30T03:53:03;6.68;;;3.97;;
22201;SDS011;11266;51.522;6.302;2023-09-30T03:53:49;6.93;;;3.42;;
22201;SDS011;11266;51.522;6.302;2023-09-30T03:54:35;10.50;;;4.15;;
22201;SDS011;11266;51.522;6.302;2023-09-30T03:55:22;10.48;;;3.67;;
22201;SDS011;11266;51.522;6.302;2023-09-30T03:56:08;5.60;;;3.45;;
22201;SDS011;11266;51.522;6.302;2023-09-30T03:56:56;10.55;;;4.30;;
22201;SDS011;11266;51.522;6.302;2023-09-30T03:57:42;8.57;;;4.57;;
22201;SDS011;11266;51.522;6.302;2023-09-30T03:58:28;9.25;;;4.50;;
22201;SDS011;11266;51.522;6.302;2023-09-30T03:59:13;6.20;;;3.67;;
22201;SDS011;11266;51.522;6.302;2023-09-30T03:59:59;6.60;;;3.70;;
22201;SDS011;11266;51.522;6.302;2023-09-30T04:00:45;10.50;;;4.60;;
22201;SDS011;11266;51.522;6.302;2023-09-30T04:01:31;8.93;;;4.35;;
22201;SDS011;11266;51.522;6.302;2023-09-30T04:02:17;6.35;;;3.60;;
22201;SDS011;11266;51.522;6.302;2023-09-30T04:03:02;6.85;;;3.47;;
22201;SDS011;11266;51.522;6.302;2023-09-30T04:03:48;9.35;;;3.55;;
22201;SDS011;11266;51.522;6.302;2023-09-30T04:04:34;9.43;;;4.07;;
22201;SDS011;11266;51.522;6.302;2023-09-30T04:05:22;9.05;;;4.07;;
22201;SDS011;11266;51.522;6.302;2023-09-30T04:06:11;6.88;;;4.25;;
22201;SDS011;11266;51.522;6.302;2023-09-30T04:06:57;7.63;;;3.80;;
22201;SDS011;11266;51.522;6.302;2023-09-30T04:07:43;8.73;;;4.45;;
22201;SDS011;11266;51.522;6.302;2023-09-30T04:08:28;8.48;;;4.25;;
22201;SDS011;11266;51.522;6.302;2023-09-30T04:09:14;7.28;;;3.83;;
22201;SDS011;11266;51.522;6.302;2023-09-30T04:10:01;6.63;;;4.03;;
22201;SDS011;11266;51.522;6.302;2023-09-30T04:10:47;8.23;;;4.25;;
22201;SDS011;11266;51.522;6.302;2023-09-30T04:11:32;10.20;;;4.22;;
22201;SDS011;11266;51.522;6.302;2023-09-30T04:12:18;9.70;;;4.63;;
22201;SDS011;11266;51.522;6.302;2023-09-30T04:13:03;8.23;;;4.95;;
22201;SDS011;11266;51.522;6.302;2023-09-30T04:13:49;6.72;;;3.90;;
22201;SDS011;11266;51.522;6.302;2023-09-30T04:14:35;8.05;;;3.80;;
22201;SDS011;11266;51.522;6.302;2023-09-30T04:15:21;8.23;;;4.20;;
22201;SDS011;11266;51.522;6.302;2023-09-30T04:16:07;7.43;;;3.90;;
22201;SDS011;11266;51.522;6.302;2023-09-30T04:16:52;8.65;;;4.57;;
22201;SDS011;11266;51.522;6.302;2023-09-30T04:17:39;6.70;;;4.28;;
22201;SDS011;11266;51.522;6.302;2023-09-30T04:18:25;7.80;;;4.22;;
22201;SDS011;11266;51.522;6.302;2023-09-30T04:19:13;8.23;;;4.50;;
22201;SDS011;11266;51.522;6.302;2023-09-30T04:19:59;8.07;;;4.40;;
22201;SDS011;11266;51.522;6.302;2023-09-30T04:20:45;7.38;;;4.05;;
22201;SDS011;11266;51.522;6.302;2023-09-30T04:21:31;7.85;;;4.10;;
22201;SDS011;11266;51.522;6.302;2023-09-30T04:22:19;10.27;;;4.32;;
22201;SDS011;11266;51.522;6.302;2023-09-30T04:23:06;7.85;;;4.68;;
22201;SDS011;11266;51.522;6.302;2023-09-30T04:23:54;10.48;;;4.38;;
22201;SDS011;11266;51.522;6.302;2023-09-30T04:24:40;8.13;;;5.25;;
22201;SDS011;11266;51.522;6.302;2023-09-30T04:25:26;9.18;;;4.60;;
22201;SDS011;11266;51.522;6.302;2023-09-30T04:26:12;7.60;;;4.93;;
22201;SDS011;11266;51.522;6.302;2023-09-30T04:26:58;9.32;;;4.80;;
22201;SDS011;11266;51.522;6.302;2023-09-30T04:27:48;11.45;;;5.07;;
22201;SDS011;11266;51.522;6.302;2023-09-30T04:28:33;7.47;;;4.60;;
22201;SDS011;11266;51.522;6.302;2023-09-30T04:29:19;8.73;;;5.05;;
22201;SDS011;11266;51.522;6.302;2023-09-30T04:30:05;8.40;;;4.85;;
22201;SDS011;11266;51.522;6.302;2023-09-30T04:30:53;8.35;;;4.78;;
22201;SDS011;11266;51.522;6.302;2023-09-30T04:31:39;7.75;;;4.57;;
22201;SDS011;11266;51.522;6.302;2023-09-30T04:32:27;6.82;;;4.53;;
22201;SDS011;11266;51.522;6.302;2023-09-30T04:33:12;9.15;;;5.07;;
22201;SDS011;11266;51.522;6.302;2023-09-30T04:33:58;7.03;;;4.57;;
22201;SDS011;11266;51.522;6.302;2023-09-30T04:34:44;9.02;;;5.20;;
22201;SDS011;11266;51.522;6.302;2023-09-30T04:35:32;7.10;;;4.90;;
22201;SDS011;11266;51.522;6.302;2023-09-30T04:36:17;10.30;;;5.90;;
22201;SDS011;11266;51.522;6.302;2023-09-30T04:37:03;7.97;;;5.28;;
22201;SDS011;11266;51.522;6.302;2023-09-30T04:37:48;9.13;;;5.45;;
22201;SDS011;11266;51.522;6.302;2023-09-30T04:38:34;10.43;;;5.82;;
22201;SDS011;11266;51.522;6.302;2023-09-30T04:39:22;9.63;;;5.43;;
22201;SDS011;11266;51.522;6.302;2023-09-30T04:40:08;10.15;;;5.45;;